createdAt,value
2022-09-14T00:00:23.407Z,11.31
2022-09-14T00:02:51.281Z,11.29
2022-09-14T00:05:18.935Z,11.20
2022-09-14T00:07:46.481Z,11.10
2022-09-14T00:10:15.352Z,11.11
2022-09-14T00:12:42.910Z,11.15
2022-09-14T00:15:11.141Z,11.04
2022-09-14T00:17:38.679Z,11.00
2022-09-14T00:20:07.556Z,11.02
2022-09-14T00:22:35.100Z,10.99
2022-09-14T00:25:02.635Z,10.99
2022-09-14T00:27:31.517Z,11.02
2022-09-14T00:29:59.075Z,11.00
2022-09-14T00:32:26.575Z,10.90
2022-09-14T00:34:54.084Z,10.87
2022-09-14T00:37:21.595Z,10.86
2022-09-14T00:39:50.314Z,10.83
2022-09-14T00:42:19.563Z,10.82
2022-09-14T00:45:03.139Z,10.76
2022-09-14T00:47:32.611Z,10.78
2022-09-14T00:50:02.177Z,10.72
2022-09-14T00:52:32.741Z,10.66
2022-09-14T00:55:01.969Z,10.58
2022-09-14T00:57:32.290Z,10.59
2022-09-14T01:00:01.409Z,10.58
2022-09-14T01:02:29.656Z,10.55
2022-09-14T01:04:57.379Z,10.53
2022-09-14T01:07:38.382Z,10.50
2022-09-14T01:10:15.515Z,10.45
2022-09-14T01:12:50.900Z,10.43
2022-09-14T01:15:26.278Z,10.53
2022-09-14T01:17:58.342Z,10.55
2022-09-14T01:20:30.984Z,10.48
2022-09-14T01:23:03.816Z,10.35
2022-09-14T01:26:07.882Z,10.36
2022-09-14T01:28:41.915Z,10.45
2022-09-14T01:31:13.275Z,10.42
2022-09-14T01:33:43.487Z,10.37
2022-09-14T01:36:12.772Z,10.29
2022-09-14T01:38:43.295Z,10.25
2022-09-14T01:41:13.444Z,10.27
2022-09-14T01:43:45.227Z,10.35
2022-09-14T01:46:15.731Z,10.43
2022-09-14T01:48:47.168Z,10.49
2022-09-14T01:51:19.091Z,10.41
2022-09-14T01:53:49.138Z,10.43
2022-09-14T01:56:20.723Z,10.50
2022-09-14T01:58:52.682Z,10.55
2022-09-14T02:01:24.452Z,10.60
2022-09-14T02:03:55.481Z,10.65
2022-09-14T02:06:27.495Z,10.71
2022-09-14T02:08:55.379Z,10.75
2022-09-14T02:11:23.016Z,10.75
2022-09-14T02:13:51.922Z,10.82
2022-09-14T02:16:20.749Z,10.83
2022-09-14T02:18:48.340Z,10.77
2022-09-14T02:21:18.495Z,10.78
2022-09-14T02:23:46.048Z,10.78
2022-09-14T02:26:13.835Z,10.79
2022-09-14T02:28:41.378Z,10.83
2022-09-14T02:31:18.839Z,10.89
2022-09-14T02:33:52.080Z,10.88
2022-09-14T02:36:29.689Z,10.86
2022-09-14T02:39:02.453Z,10.78
2022-09-14T02:41:39.663Z,10.70
2022-09-14T02:44:13.593Z,10.63
2022-09-14T02:46:46.916Z,10.51
2022-09-14T02:49:19.568Z,10.42
2022-09-14T02:51:50.961Z,10.34
2022-09-14T02:54:20.423Z,10.36
2022-09-14T02:56:48.279Z,10.42
2022-09-14T02:59:15.855Z,10.41
2022-09-14T03:01:45.116Z,10.45
2022-09-14T03:04:12.679Z,10.46
2022-09-14T03:06:40.185Z,10.49
2022-09-14T03:09:07.700Z,10.54
2022-09-14T03:11:35.228Z,10.56
2022-09-14T03:14:02.715Z,10.65
2022-09-14T03:16:30.267Z,10.69
2022-09-14T03:18:59.123Z,10.72
2022-09-14T03:21:26.653Z,10.74
2022-09-14T03:23:55.074Z,10.76
2022-09-14T03:26:24.327Z,10.82
2022-09-14T03:28:52.425Z,10.81
2022-09-14T03:31:20.408Z,10.83
2022-09-14T03:33:48.648Z,10.84
2022-09-14T03:36:18.968Z,10.83
2022-09-14T03:38:47.718Z,10.80
2022-09-14T03:41:15.996Z,10.77
2022-09-14T03:43:44.119Z,10.74
2022-09-14T03:46:13.468Z,10.77
2022-09-14T03:48:41.567Z,10.75
2022-09-14T03:51:10.441Z,10.76
2022-09-14T03:53:39.656Z,10.72
2022-09-14T03:56:08.703Z,10.71
2022-09-14T03:58:36.216Z,10.75
2022-09-14T04:01:07.555Z,10.77
2022-09-14T04:03:35.348Z,10.85
2022-09-14T04:06:05.327Z,10.92
2022-09-14T04:08:33.376Z,11.08
2022-09-14T04:11:02.531Z,11.17
2022-09-14T04:13:30.011Z,11.22
2022-09-14T04:15:59.042Z,11.25
2022-09-14T04:18:27.239Z,11.27
2022-09-14T04:20:56.397Z,11.20
2022-09-14T04:23:23.991Z,11.17
2022-09-14T04:25:51.623Z,11.09
2022-09-14T04:28:21.105Z,11.10
2022-09-14T04:30:56.309Z,11.04
2022-09-14T04:33:24.053Z,11.02
2022-09-14T04:35:59.432Z,11.04
2022-09-14T04:38:27.128Z,11.08
2022-09-14T04:40:54.635Z,11.10
2022-09-14T04:43:23.551Z,11.03
2022-09-14T04:45:51.379Z,10.97
2022-09-14T04:48:19.216Z,10.97
2022-09-14T04:50:47.119Z,10.87
2022-09-14T04:53:14.607Z,10.83
2022-09-14T04:55:42.087Z,10.83
2022-09-14T04:58:09.639Z,10.88
2022-09-14T05:00:38.542Z,10.90
2022-09-14T05:03:06.583Z,10.91
2022-09-14T05:05:40.026Z,10.85
2022-09-14T05:08:10.572Z,10.85
2022-09-14T05:10:38.074Z,10.76
2022-09-14T05:13:05.563Z,10.76
2022-09-14T05:15:33.076Z,10.85
2022-09-14T05:18:02.801Z,10.92
2022-09-14T05:20:30.356Z,10.97
2022-09-14T05:22:57.848Z,11.03
2022-09-14T05:25:25.858Z,11.15
2022-09-14T05:27:53.384Z,11.23
2022-09-14T05:30:20.973Z,11.33
2022-09-14T05:32:48.480Z,11.37
2022-09-14T05:35:17.489Z,11.46
2022-09-14T05:37:44.992Z,11.51
2022-09-14T05:40:12.635Z,11.61
2022-09-14T05:42:40.218Z,11.67
2022-09-14T05:45:08.775Z,11.59
2022-09-14T05:47:39.143Z,11.69
2022-09-14T05:50:08.770Z,11.53
2022-09-14T05:52:37.632Z,11.69
2022-09-14T05:55:05.946Z,11.97
2022-09-14T05:57:33.739Z,12.17
2022-09-14T06:00:01.276Z,12.24
2022-09-14T06:02:28.833Z,12.34
2022-09-14T06:04:56.786Z,12.22
2022-09-14T06:07:24.400Z,12.27
2022-09-14T06:09:53.255Z,12.42
2022-09-14T06:12:20.841Z,12.67
2022-09-14T06:14:48.340Z,12.96
2022-09-14T06:17:15.842Z,13.33
2022-09-14T06:19:43.351Z,13.23
2022-09-14T06:22:10.907Z,13.25
2022-09-14T06:24:38.423Z,13.29
2022-09-14T06:27:08.890Z,13.33
2022-09-14T06:29:36.622Z,13.44
2022-09-14T06:32:04.382Z,13.64
2022-09-14T06:34:31.902Z,13.63
2022-09-14T06:36:59.410Z,13.88
2022-09-14T06:39:26.910Z,13.81
2022-09-14T06:41:54.428Z,14.14
2022-09-14T06:44:23.284Z,14.34
2022-09-14T06:46:50.776Z,14.45
2022-09-14T06:49:20.686Z,14.44
2022-09-14T06:51:48.391Z,14.50
2022-09-14T06:54:16.652Z,14.46
2022-09-14T06:56:45.335Z,14.57
2022-09-14T06:59:14.998Z,14.64
2022-09-14T07:01:45.260Z,14.73
2022-09-14T07:04:14.244Z,14.91
2022-09-14T07:06:43.858Z,14.85
2022-09-14T07:09:11.871Z,14.88
2022-09-14T07:11:40.007Z,15.03
2022-09-14T07:14:08.161Z,15.02
2022-09-14T07:16:36.881Z,15.20
2022-09-14T07:19:07.156Z,15.34
2022-09-14T07:21:35.414Z,15.12
2022-09-14T07:24:03.434Z,15.32
2022-09-14T07:26:32.322Z,15.32
2022-09-14T07:29:01.924Z,15.33
2022-09-14T07:31:32.255Z,15.82
2022-09-14T07:34:03.277Z,16.05
2022-09-14T07:36:35.121Z,16.30
2022-09-14T07:39:03.523Z,16.68
2022-09-14T07:41:32.145Z,16.87
2022-09-14T07:44:00.940Z,16.71
2022-09-14T07:46:29.061Z,17.29
2022-09-14T07:48:57.976Z,17.71
2022-09-14T07:51:26.075Z,18.03
2022-09-14T07:53:55.353Z,17.93
2022-09-14T07:56:22.990Z,18.00
2022-09-14T07:58:55.428Z,18.24
2022-09-14T08:01:24.984Z,18.32
2022-09-14T08:03:52.555Z,18.25
2022-09-14T08:06:21.408Z,18.22
2022-09-14T08:08:50.810Z,17.97
2022-09-14T08:11:21.770Z,18.07
2022-09-14T08:13:52.012Z,17.72
2022-09-14T08:16:20.328Z,17.80
2022-09-14T08:18:48.575Z,18.14
2022-09-14T08:21:17.650Z,18.20
2022-09-14T08:23:45.731Z,18.41
2022-09-14T08:26:16.212Z,18.68
2022-09-14T08:28:45.658Z,18.84
2022-09-14T08:31:15.187Z,18.86
2022-09-14T08:33:45.329Z,18.53
2022-09-14T08:36:15.837Z,18.68
2022-09-14T08:38:43.449Z,19.12
2022-09-14T08:41:18.080Z,19.24
2022-09-14T08:43:47.181Z,19.02
2022-09-14T08:46:24.015Z,19.56
2022-09-14T08:48:51.568Z,19.53
2022-09-14T08:51:19.067Z,19.35
2022-09-14T08:53:46.651Z,18.90
2022-09-14T08:56:17.137Z,19.85
2022-09-14T08:58:56.061Z,19.63
2022-09-14T09:01:35.915Z,19.78
2022-09-14T09:04:17.374Z,19.59
2022-09-14T09:06:48.946Z,19.61
2022-09-14T09:09:22.767Z,19.92
2022-09-14T09:11:52.204Z,19.93
2022-09-14T09:14:25.084Z,20.11
2022-09-14T09:16:55.550Z,20.39
2022-09-14T09:19:28.785Z,20.48
2022-09-14T09:21:56.783Z,20.44
2022-09-14T09:24:28.440Z,19.66
2022-09-14T09:26:55.999Z,20.12
2022-09-14T09:29:24.939Z,19.95
2022-09-14T09:31:54.532Z,19.15
2022-09-14T09:34:26.947Z,19.94
2022-09-14T09:36:55.821Z,20.17
2022-09-14T09:39:25.823Z,20.01
2022-09-14T09:41:57.597Z,20.13
2022-09-14T09:44:26.475Z,20.23
2022-09-14T09:46:56.313Z,19.59
2022-09-14T09:49:26.806Z,20.20
2022-09-14T09:51:54.596Z,20.19
2022-09-14T09:54:30.097Z,19.99
2022-09-14T09:56:59.635Z,19.62
2022-09-14T09:59:35.165Z,20.34
2022-09-14T10:02:22.811Z,20.53
2022-09-14T10:04:59.370Z,20.30
2022-09-14T10:07:28.144Z,20.87
2022-09-14T10:10:00.933Z,20.93
2022-09-14T10:12:29.318Z,21.11
2022-09-14T10:15:16.535Z,20.81
2022-09-14T10:17:58.112Z,20.94
2022-09-14T10:20:26.676Z,20.89
2022-09-14T10:22:54.282Z,20.63
2022-09-14T10:25:24.067Z,20.51
2022-09-14T10:27:59.331Z,20.16
2022-09-14T10:30:29.476Z,19.35
2022-09-14T10:33:00.239Z,19.87
2022-09-14T10:35:34.278Z,20.46
2022-09-14T10:38:12.094Z,21.01
2022-09-14T10:40:43.714Z,20.42
2022-09-14T10:43:15.391Z,19.60
2022-09-14T10:45:49.624Z,19.67
2022-09-14T10:48:36.546Z,20.11
2022-09-14T10:51:18.718Z,19.53
2022-09-14T10:53:51.513Z,19.44
2022-09-14T10:56:20.995Z,19.70
2022-09-14T10:59:13.466Z,19.86
2022-09-14T11:01:55.334Z,19.92
2022-09-14T11:04:46.820Z,19.93
2022-09-14T11:07:22.447Z,19.60
2022-09-14T11:09:55.075Z,20.53
2022-09-14T11:12:25.797Z,20.53
2022-09-14T11:15:01.926Z,21.59
2022-09-14T11:17:50.800Z,21.70
2022-09-14T11:20:26.503Z,21.11
2022-09-14T11:23:00.654Z,20.39
2022-09-14T11:25:33.367Z,20.56
2022-09-14T11:28:04.800Z,18.90
2022-09-14T11:30:35.427Z,19.18
2022-09-14T11:33:08.868Z,19.35
2022-09-14T11:35:39.911Z,19.36
2022-09-14T11:38:12.335Z,19.66
2022-09-14T11:40:44.445Z,19.91
2022-09-14T11:43:15.039Z,19.92
2022-09-14T11:45:46.075Z,19.69
2022-09-14T11:48:41.940Z,19.52
2022-09-14T11:51:16.234Z,19.63
2022-09-14T11:53:44.707Z,19.91
2022-09-14T11:56:24.432Z,20.63
2022-09-14T11:58:52.031Z,20.21
2022-09-14T12:01:29.483Z,20.09
2022-09-14T12:04:14.146Z,20.37
2022-09-14T12:06:54.754Z,19.90
2022-09-14T12:09:46.260Z,20.14
2022-09-14T12:12:37.867Z,20.68
2022-09-14T12:15:15.434Z,20.29
2022-09-14T12:17:44.476Z,19.81
2022-09-14T12:20:31.225Z,19.97
2022-09-14T12:23:07.550Z,20.45
2022-09-14T12:25:35.776Z,20.08
2022-09-14T12:28:03.755Z,20.13
2022-09-14T12:31:10.668Z,19.73
2022-09-14T12:33:46.079Z,20.11
2022-09-14T12:36:53.493Z,19.98
2022-09-14T12:39:23.282Z,19.49
2022-09-14T12:42:02.828Z,19.62
2022-09-14T12:44:36.138Z,19.59
2022-09-14T12:47:41.173Z,19.18
2022-09-14T12:50:14.555Z,19.41
2022-09-14T12:53:06.808Z,19.22
2022-09-14T12:55:46.056Z,19.89
2022-09-14T12:58:26.366Z,20.04
2022-09-14T13:01:01.844Z,19.93
2022-09-14T13:03:53.226Z,19.84
2022-09-14T13:06:21.809Z,19.75
2022-09-14T13:08:55.200Z,20.00
2022-09-14T13:11:26.516Z,19.98
2022-09-14T13:13:54.164Z,20.81
2022-09-14T13:16:29.471Z,20.55
2022-09-14T13:19:02.623Z,21.20
2022-09-14T13:21:30.179Z,21.50
2022-09-14T13:23:59.060Z,21.15
2022-09-14T13:26:27.907Z,21.25
2022-09-14T13:28:56.785Z,21.02
2022-09-14T13:31:29.464Z,20.70
2022-09-14T13:33:57.245Z,20.85
2022-09-14T13:36:26.505Z,20.74
2022-09-14T13:38:54.447Z,20.73
2022-09-14T13:41:24.354Z,20.80
2022-09-14T13:43:55.331Z,21.15
2022-09-14T13:46:23.714Z,20.71
2022-09-14T13:48:52.110Z,21.01
2022-09-14T13:51:25.129Z,21.15
2022-09-14T13:53:54.402Z,21.28
2022-09-14T13:56:26.651Z,22.50
2022-09-14T13:59:20.628Z,22.42
2022-09-14T14:01:57.562Z,22.63
2022-09-14T14:04:33.552Z,22.54
2022-09-14T14:07:14.696Z,22.66
2022-09-14T14:09:45.478Z,21.35
2022-09-14T14:12:25.819Z,21.34
2022-09-14T14:14:55.080Z,20.90
2022-09-14T14:17:34.228Z,21.20
2022-09-14T14:20:35.387Z,21.13
2022-09-14T14:23:19.949Z,20.67
2022-09-14T14:25:49.411Z,21.03
2022-09-14T14:28:23.238Z,20.73
2022-09-14T14:30:50.950Z,20.92
2022-09-14T14:33:20.091Z,21.44
2022-09-14T14:35:48.283Z,21.45
2022-09-14T14:38:16.630Z,20.21
2022-09-14T14:40:45.603Z,20.77
2022-09-14T14:43:19.511Z,20.76
2022-09-14T14:45:47.193Z,20.54
2022-09-14T14:48:14.974Z,20.50
2022-09-14T14:50:42.527Z,20.33
2022-09-14T14:53:10.053Z,20.27
2022-09-14T14:55:37.590Z,20.17
2022-09-14T14:58:09.739Z,20.43
2022-09-14T15:00:39.308Z,20.49
2022-09-14T15:03:06.971Z,20.17
2022-09-14T15:05:34.642Z,20.59
2022-09-14T15:08:02.244Z,20.86
2022-09-14T15:10:30.624Z,20.73
2022-09-14T15:12:58.263Z,21.09
2022-09-14T15:15:27.118Z,21.39
2022-09-14T15:17:55.994Z,21.25
2022-09-14T15:20:24.159Z,21.22
2022-09-14T15:22:51.943Z,21.20
2022-09-14T15:25:21.278Z,20.87
2022-09-14T15:27:49.188Z,21.12
2022-09-14T15:30:17.074Z,20.81
2022-09-14T15:32:44.598Z,20.80
2022-09-14T15:35:15.340Z,21.02
2022-09-14T15:37:43.250Z,21.08
2022-09-14T15:40:11.722Z,21.09
2022-09-14T15:42:39.287Z,20.79
2022-09-14T15:45:09.033Z,20.64
2022-09-14T15:47:36.875Z,20.13
2022-09-14T15:50:05.303Z,20.05
2022-09-14T15:52:35.904Z,20.47
2022-09-14T15:55:03.592Z,20.45
2022-09-14T15:57:31.092Z,20.22
2022-09-14T15:59:58.703Z,20.14
2022-09-14T16:02:26.400Z,20.45
2022-09-14T16:04:53.975Z,20.50
2022-09-14T16:07:21.492Z,20.06
2022-09-14T16:09:50.331Z,19.74
2022-09-14T16:12:17.806Z,20.22
2022-09-14T16:14:45.315Z,20.00
2022-09-14T16:17:12.846Z,19.82
2022-09-14T16:19:40.347Z,19.76
2022-09-14T16:22:08.095Z,19.54
2022-09-14T16:24:35.731Z,19.33
2022-09-14T16:27:04.700Z,19.26
2022-09-14T16:29:32.186Z,19.44
2022-09-14T16:31:59.742Z,19.85
2022-09-14T16:34:28.844Z,19.78
2022-09-14T16:36:58.459Z,19.66
2022-09-14T16:39:28.436Z,19.62
2022-09-14T16:41:56.642Z,19.52
2022-09-14T16:44:27.716Z,19.50
2022-09-14T16:46:57.505Z,19.51
2022-09-14T16:49:27.935Z,19.25
2022-09-14T16:51:56.180Z,19.12
2022-09-14T16:54:25.351Z,19.29
2022-09-14T16:56:55.967Z,19.25
2022-09-14T16:59:25.444Z,19.03
2022-09-14T17:01:54.998Z,19.05
2022-09-14T17:04:23.828Z,19.09
2022-09-14T17:06:51.998Z,18.93
2022-09-14T17:09:21.312Z,18.70
2022-09-14T17:11:49.455Z,18.59
2022-09-14T17:14:18.857Z,18.57
2022-09-14T17:16:48.368Z,18.49
2022-09-14T17:19:16.468Z,18.45
2022-09-14T17:21:45.163Z,18.30
2022-09-14T17:24:13.904Z,18.16
2022-09-14T17:26:41.990Z,18.10
2022-09-14T17:29:09.978Z,17.96
2022-09-14T17:31:40.611Z,17.79
2022-09-14T17:34:11.345Z,17.88
2022-09-14T17:36:39.301Z,17.78
2022-09-14T17:39:11.579Z,17.78
2022-09-14T17:41:40.396Z,17.73
2022-09-14T17:44:08.983Z,17.55
2022-09-14T17:46:41.462Z,17.62
2022-09-14T17:49:15.961Z,17.46
2022-09-14T17:51:45.082Z,17.26
2022-09-14T17:54:13.278Z,17.33
2022-09-14T17:56:41.288Z,17.16
2022-09-14T17:59:11.713Z,17.06
2022-09-14T18:01:39.374Z,16.72
2022-09-14T18:04:08.764Z,16.48
2022-09-14T18:06:39.232Z,16.39
2022-09-14T18:09:08.809Z,16.22
2022-09-14T18:11:36.679Z,16.30
2022-09-14T18:14:05.274Z,16.01
2022-09-14T18:16:33.524Z,15.98
2022-09-14T18:19:01.464Z,15.80
2022-09-14T18:21:29.080Z,15.68
2022-09-14T18:23:58.255Z,15.59
2022-09-14T18:26:26.164Z,15.63
2022-09-14T18:28:55.933Z,15.68
2022-09-14T18:31:23.897Z,15.97
2022-09-14T18:33:52.763Z,15.96
2022-09-14T18:36:20.920Z,15.96
2022-09-14T18:38:49.331Z,15.97
2022-09-14T18:41:18.577Z,15.80
2022-09-14T18:43:47.546Z,15.73
2022-09-14T18:46:16.175Z,15.67
2022-09-14T18:48:44.614Z,15.49
2022-09-14T18:51:13.015Z,15.40
2022-09-14T18:53:40.897Z,15.42
2022-09-14T18:56:10.003Z,15.58
2022-09-14T18:58:44.447Z,15.54
2022-09-14T19:01:12.819Z,15.58
2022-09-14T19:03:41.624Z,15.52
2022-09-14T19:06:10.901Z,15.49
2022-09-14T19:08:38.785Z,15.47
2022-09-14T19:11:07.164Z,15.41
2022-09-14T19:13:34.899Z,15.37
2022-09-14T19:16:07.819Z,15.15
2022-09-14T19:18:35.590Z,14.90
2022-09-14T19:21:07.411Z,14.82
2022-09-14T19:23:35.104Z,15.20
2022-09-14T19:26:04.692Z,15.36
2022-09-14T19:28:33.332Z,15.27
2022-09-14T19:31:01.020Z,14.75
2022-09-14T19:33:31.510Z,14.58
2022-09-14T19:36:03.374Z,14.76
2022-09-14T19:38:30.931Z,14.82
2022-09-14T19:40:58.440Z,14.95
2022-09-14T19:43:25.967Z,14.62
2022-09-14T19:45:53.538Z,14.66
2022-09-14T19:48:21.079Z,14.74
2022-09-14T19:50:49.944Z,14.80
2022-09-14T19:53:17.426Z,14.76
2022-09-14T19:55:44.971Z,14.84
2022-09-14T19:58:12.625Z,14.70
2022-09-14T20:00:40.147Z,14.95
2022-09-14T20:03:08.212Z,14.89
2022-09-14T20:05:35.845Z,14.75
2022-09-14T20:08:04.835Z,14.32
2022-09-14T20:10:32.352Z,14.46
2022-09-14T20:12:59.829Z,14.27
2022-09-14T20:15:29.448Z,14.22
2022-09-14T20:17:57.120Z,14.29
2022-09-14T20:20:24.929Z,14.20
2022-09-14T20:22:52.438Z,14.04
2022-09-14T20:25:21.364Z,13.96
2022-09-14T20:27:48.934Z,13.85
2022-09-14T20:30:16.450Z,13.75
2022-09-14T20:32:43.978Z,13.81
2022-09-14T20:35:11.471Z,13.80
2022-09-14T20:37:38.971Z,13.65
2022-09-14T20:40:09.609Z,13.72
2022-09-14T20:42:38.628Z,13.67
2022-09-14T20:45:06.973Z,13.69
2022-09-14T20:47:34.486Z,13.62
2022-09-14T20:50:01.983Z,13.60
2022-09-14T20:52:29.494Z,13.52
2022-09-14T20:54:56.994Z,13.47
2022-09-14T20:57:24.495Z,13.52
2022-09-14T20:59:53.348Z,13.51
2022-09-14T21:02:20.965Z,13.38
2022-09-14T21:04:48.552Z,13.41
2022-09-14T21:07:16.381Z,13.30
2022-09-14T21:09:43.989Z,13.39
2022-09-14T21:12:13.988Z,13.10
2022-09-14T21:14:42.364Z,13.00
2022-09-14T21:17:11.380Z,12.78
2022-09-14T21:19:39.064Z,12.74
2022-09-14T21:22:07.714Z,12.62
2022-09-14T21:24:36.134Z,12.32
2022-09-14T21:27:04.681Z,12.43
2022-09-14T21:29:32.384Z,12.16
2022-09-14T21:31:59.932Z,11.95
2022-09-14T21:34:29.005Z,11.96
2022-09-14T21:36:56.532Z,11.98
2022-09-14T21:39:26.964Z,11.95
2022-09-14T21:41:59.161Z,11.86
2022-09-14T21:44:30.856Z,11.86
2022-09-14T21:46:58.527Z,11.83
2022-09-14T21:49:26.079Z,11.76
2022-09-14T21:51:54.963Z,11.73
2022-09-14T21:54:22.484Z,11.77
2022-09-14T21:56:50.032Z,11.73
2022-09-14T21:59:19.733Z,11.72
2022-09-14T22:01:47.884Z,11.71
2022-09-14T22:04:16.598Z,11.60
2022-09-14T22:06:45.443Z,11.55
2022-09-14T22:09:15.900Z,11.48
2022-09-14T22:11:43.879Z,11.43
2022-09-14T22:14:13.043Z,11.44
2022-09-14T22:16:41.304Z,11.41
2022-09-14T22:19:13.634Z,11.31
2022-09-14T22:21:41.323Z,11.35
2022-09-14T22:24:12.015Z,11.25
2022-09-14T22:26:41.243Z,10.97
2022-09-14T22:29:09.716Z,10.84
2022-09-14T22:31:39.334Z,10.79
2022-09-14T22:34:06.875Z,10.70
2022-09-14T22:36:34.400Z,10.64
2022-09-14T22:39:01.959Z,10.49
2022-09-14T22:41:29.787Z,10.60
2022-09-14T22:43:58.714Z,11.18
2022-09-14T22:46:26.621Z,10.88
2022-09-14T22:48:54.641Z,10.73
2022-09-14T22:51:23.981Z,10.60
2022-09-14T22:53:52.587Z,10.60
2022-09-14T22:56:22.232Z,10.55
2022-09-14T22:58:49.969Z,10.73
2022-09-14T23:01:20.481Z,10.52
2022-09-14T23:03:48.023Z,10.31
2022-09-14T23:06:15.681Z,10.40
2022-09-14T23:08:43.203Z,10.42
2022-09-14T23:11:12.450Z,10.42
2022-09-14T23:13:41.220Z,10.35
2022-09-14T23:16:13.180Z,10.28
2022-09-14T23:18:42.285Z,10.16
2022-09-14T23:21:10.250Z,10.11
2022-09-14T23:23:39.048Z,10.11
2022-09-14T23:26:08.715Z,10.33
2022-09-14T23:28:36.886Z,10.60
2022-09-14T23:31:05.089Z,10.93
2022-09-14T23:33:32.653Z,11.23
2022-09-14T23:36:01.509Z,11.42
2022-09-14T23:38:29.181Z,11.57
2022-09-14T23:40:58.389Z,11.71
2022-09-14T23:43:25.888Z,11.83
2022-09-14T23:45:53.761Z,12.00
2022-09-14T23:48:21.254Z,12.09
2022-09-14T23:50:57.475Z,12.11
2022-09-14T23:53:26.849Z,12.17
2022-09-14T23:55:54.637Z,12.27
2022-09-14T23:58:22.165Z,12.33
